Pagrindinis puslapis
METAR-TAF:

METAR-TAF

Oro uostai :

Hiustonas, Teksasas, Jungtinės Amerikos Valstijos

platuma: 29-48-18N, ilguma: 095-53-52W, Aukštis: 51 m

Dabartinis oras

Ataskaita buvo paskelbta 7 minutes, ne 10:35 UTC
Vėjas 3 kt iš Šiaurės
Temperatūra 21°C
Drėgmė 100%
Slėgis 1017 hPa
Matomumas: 3.2 km
Giedras dangus
rūkana

METAR: KTME 291035Z AUTO 01003KT 2SM BR CLR 21/21 A3002 RMK AO2

Laikas: 04:42 (10:42 UTC)


TAF: trūkstamas

Orai ataskaitas ir orų prognozės (METAR, TAF).

turimą stotys yra geltonos ir raudonos taškus žemėlapyje.

Perkelti pele per norėdami pamatyti stoties vardą.

Tada spustelėkite, norėdami matyti oro stebėjimo ir prognozės.

Norėdami pakeisti žemėlapį: spustelėkite ant žalios mygtukų su juodo kryžiaus žemyn,; žalią mygtuką su brūkšneliu, jei norite nutolinti; arba žalių rodyklių gretimoms žemėlapius.


METAR-TAF: